Airfield :







YOU CAN JOIN US ON...

 
LOGIN :

Register | Disclaimer

   EN    FR    IT 

 









Legend :    VFR   Marginal VFR   IFR   Intensive IFR   Very Intensive IFR
Visi :
Ceiling :
>= 8 km
>= 3000ft
5 to 8 km
1000 to 3000 ft
1500m to 5 km
500 to 1000 ft
800 to 1500m
200 to 500 ft
< 800m
< 200 ft
Symbols :   Thunderstorms  Fog  Heavy snow  Heavy precipitations  Wind > 20 kt







- Airport Elevation : 40 ft
- IATA code : YRF


CYCA - Cartwright

CURRENT METAR :
  • 181300Z AUTO 27011G16KT 9SM BKN022 BKN037 OVC044 M08/M12 A2958 RMK SLP018

EXPIRED METARs :
  • 181257Z AUTO 27011G16KT 240V300 9SM BKN022 OVC040 M08/M12 A2957 RMK SLP017
  • 181239Z AUTO 28011G19KT 270V340 9SM SCT042 BKN055 OVC066 M08/M13 A2956 RMK PRESRR SLP012
  • 181227Z AUTO 30012G22KT 9SM -SN OVC065 M08/M13 A2955 RMK SLP008
  • 181200Z AUTO 31013G24KT 9SM -SN OVC060 M08/M12 A2952 RMK SLP998
  • 181100Z AUTO 30016G25KT 9SM -SN OVC055 M08/M12 A2947 RMK SLP981

TAF TAF CYCA
Valid from the 18 at 08:00 until the 18 at 20:00 UTC


180739Z 1808/1820 30020G30KT 6SM -SN SCT020 OVC040
TEMPO 1808/1812 2SM -SN BLSN OVC020
PROB30 1808/1810 1SM -SN
FM181200 30020G30KT P6SM -SN OVC040
TEMPO 1812/1814 3SM -SN BLSN OVC020
PROB30 1812/1814 2SM -SN BLSN
FM181400 30015G25KT 5SM -SN BKN020 OVC040
FM181800 32015G25KT P6SM BKN030 RMK FCST BASED ON AUTO OBS. NXT FCST BY 181400Z
CZQX FIR / North America



MET'MAP, your aeronautical weather chart ! - Copyright ORBIFLY December 2007 - Disclaimer

ORBIFLY MET'MAP TEAM :

Programming & Development : Alexandra Zaïnal
Concept & Development : Baudouin d'Aumeries
Co-Development & Prog : Marc-Olivier Méhu
Technical & hardware support : Manuel Goepfert

Contact : metmap@orbifly.com




SOURCES & CREDITS :

   NOAA